createdAt,value
2023-04-22T00:00:21.348Z,9.17
2023-04-22T00:02:01.909Z,9.13
2023-04-22T00:03:42.471Z,9.13
2023-04-22T00:05:22.694Z,9.04
2023-04-22T00:07:02.971Z,8.94
2023-04-22T00:08:43.406Z,8.86
2023-04-22T00:10:23.828Z,8.8
2023-04-22T00:12:04.213Z,8.72
2023-04-22T00:13:44.611Z,8.63
2023-04-22T00:15:24.992Z,8.61
2023-04-22T00:17:05.431Z,8.69
2023-04-22T00:18:45.943Z,8.79
2023-04-22T00:20:26.304Z,8.78
2023-04-22T00:22:06.720Z,8.78
2023-04-22T00:23:47.057Z,8.76
2023-04-22T00:25:27.403Z,8.69
2023-04-22T00:27:07.845Z,8.61
2023-04-22T00:28:48.234Z,8.54
2023-04-22T00:30:28.600Z,8.45
2023-04-22T00:32:09.037Z,8.4
2023-04-22T00:33:49.437Z,8.31
2023-04-22T00:35:29.838Z,8.25
2023-04-22T00:37:10.235Z,8.21
2023-04-22T00:38:50.647Z,8.17
2023-04-22T00:40:31.125Z,8.14
2023-04-22T00:42:11.568Z,8.2
2023-04-22T00:43:52.037Z,8.18
2023-04-22T00:45:32.353Z,8.14
2023-04-22T00:47:12.892Z,8.11
2023-04-22T00:48:53.190Z,8.05
2023-04-22T00:50:33.646Z,8
2023-04-22T00:52:13.982Z,7.94
2023-04-22T00:53:54.306Z,7.9
2023-04-22T00:55:34.712Z,7.92
2023-04-22T00:57:15.154Z,7.87
2023-04-22T00:58:55.500Z,7.86
2023-04-22T01:00:35.963Z,7.83
2023-04-22T01:02:16.429Z,7.89
2023-04-22T01:03:56.891Z,7.86
2023-04-22T01:05:37.263Z,7.86
2023-04-22T01:07:17.724Z,7.83
2023-04-22T01:08:58.038Z,7.8
2023-04-22T01:10:38.446Z,7.77
2023-04-22T01:12:18.850Z,7.73
2023-04-22T01:13:59.276Z,7.65
2023-04-22T01:15:39.711Z,7.56
2023-04-22T01:17:20.183Z,7.58
2023-04-22T01:19:00.592Z,7.49
2023-04-22T01:20:40.982Z,7.51
2023-04-22T01:22:21.409Z,7.45
2023-04-22T01:24:01.877Z,7.49
2023-04-22T01:25:42.207Z,7.51
2023-04-22T01:27:22.624Z,7.49
2023-04-22T01:29:03.016Z,7.54
2023-04-22T01:30:43.403Z,7.55
2023-04-22T01:32:24.019Z,7.58
2023-04-22T01:34:04.226Z,7.55
2023-04-22T01:35:44.621Z,7.54
2023-04-22T01:37:24.992Z,7.51
2023-04-22T01:39:05.446Z,7.54
2023-04-22T01:40:45.784Z,7.52
2023-04-22T01:42:26.180Z,7.52
2023-04-22T01:44:06.560Z,7.45
2023-04-22T01:45:47.023Z,7.41
2023-04-22T01:47:27.301Z,7.42
2023-04-22T01:49:07.716Z,7.41
2023-04-22T01:50:48.168Z,7.36
2023-04-22T01:52:28.576Z,7.29
2023-04-22T01:54:08.968Z,7.19
2023-04-22T01:55:49.358Z,7.18
2023-04-22T01:57:29.897Z,7.12
2023-04-22T01:59:10.327Z,7.06
2023-04-22T02:00:50.713Z,7.01
2023-04-22T02:02:31.124Z,6.97
2023-04-22T02:04:11.561Z,6.98
2023-04-22T02:05:51.947Z,6.94
2023-04-22T02:07:32.392Z,6.91
2023-04-22T02:09:12.793Z,6.87
2023-04-22T02:10:53.144Z,6.82
2023-04-22T02:12:33.591Z,6.82
2023-04-22T02:14:13.984Z,6.86
2023-04-22T02:15:54.497Z,6.8
2023-04-22T02:17:34.840Z,6.79
2023-04-22T02:19:15.297Z,6.8
2023-04-22T02:20:55.688Z,6.84
2023-04-22T02:22:36.118Z,6.9
2023-04-22T02:24:16.532Z,6.86
2023-04-22T02:25:56.953Z,6.86
2023-04-22T02:27:37.408Z,6.86
2023-04-22T02:29:17.854Z,6.86
2023-04-22T02:30:58.258Z,6.87
2023-04-22T02:32:38.650Z,6.9
2023-04-22T02:34:19.021Z,6.93
2023-04-22T02:35:59.370Z,6.88
2023-04-22T02:37:39.793Z,6.9
2023-04-22T02:39:20.229Z,6.87
2023-04-22T02:41:00.619Z,6.88
2023-04-22T02:42:40.932Z,6.9
2023-04-22T02:44:21.382Z,6.87
2023-04-22T02:46:01.810Z,6.87
2023-04-22T02:47:42.189Z,6.87
2023-04-22T02:49:22.589Z,6.88
2023-04-22T02:51:03.143Z,6.91
2023-04-22T02:52:43.479Z,6.93
2023-04-22T02:54:23.912Z,6.91
2023-04-22T02:56:04.275Z,6.9
2023-04-22T02:57:44.679Z,6.88
2023-04-22T02:59:25.123Z,6.91
2023-04-22T03:01:05.581Z,6.9
2023-04-22T03:02:46.148Z,6.97
2023-04-22T03:04:26.472Z,6.96
2023-04-22T03:06:06.691Z,6.96
2023-04-22T03:07:47.067Z,6.96
2023-04-22T03:09:27.452Z,6.98
2023-04-22T03:11:07.783Z,7.03
2023-04-22T03:12:48.256Z,7
2023-04-22T03:14:28.630Z,7.04
2023-04-22T03:16:09.060Z,7.06
2023-04-22T03:17:49.436Z,7.06
2023-04-22T03:19:29.847Z,7.07
2023-04-22T03:21:10.258Z,7.11
2023-04-22T03:22:50.664Z,7.19
2023-04-22T03:24:31.034Z,7.22
2023-04-22T03:26:11.484Z,7.32
2023-04-22T03:27:51.925Z,7.36
2023-04-22T03:29:32.329Z,7.45
2023-04-22T03:31:12.749Z,7.49
2023-04-22T03:32:53.215Z,7.52
2023-04-22T03:34:34.629Z,7.58
2023-04-22T03:36:13.974Z,7.62
2023-04-22T03:37:54.437Z,7.63
2023-04-22T03:39:34.860Z,7.7
2023-04-22T03:41:15.241Z,7.7
2023-04-22T03:42:55.648Z,7.72
2023-04-22T03:44:36.052Z,7.67
2023-04-22T03:46:16.520Z,7.66
2023-04-22T03:47:56.948Z,7.65
2023-04-22T03:49:37.497Z,7.61
2023-04-22T03:51:17.624Z,7.58
2023-04-22T03:52:57.976Z,7.63
2023-04-22T03:54:38.483Z,7.56
2023-04-22T03:56:18.910Z,7.58
2023-04-22T03:57:59.327Z,7.62
2023-04-22T03:59:40.018Z,7.69
2023-04-22T04:01:20.200Z,7.67
2023-04-22T04:03:00.745Z,7.66
2023-04-22T04:04:41.205Z,7.66
2023-04-22T04:06:21.368Z,7.7
2023-04-22T04:08:01.804Z,7.72
2023-04-22T04:09:42.566Z,7.77
2023-04-22T04:11:22.600Z,7.79
2023-04-22T04:13:03.055Z,7.87
2023-04-22T04:14:43.449Z,8
2023-04-22T04:16:23.898Z,8.11
2023-04-22T04:18:04.404Z,8.18
2023-04-22T04:19:44.721Z,8.2
2023-04-22T04:21:25.128Z,8.27
2023-04-22T04:23:05.602Z,8.27
2023-04-22T04:24:45.986Z,8.31
2023-04-22T04:26:26.428Z,8.4
2023-04-22T04:28:06.758Z,8.48
2023-04-22T04:29:47.286Z,8.51
2023-04-22T04:31:27.691Z,8.61
2023-04-22T04:33:08.075Z,8.73
2023-04-22T04:34:48.472Z,8.79
2023-04-22T04:36:28.891Z,8.84
2023-04-22T04:38:09.316Z,8.92
2023-04-22T04:39:49.731Z,8.98
2023-04-22T04:41:30.206Z,9.06
2023-04-22T04:43:10.631Z,9.16
2023-04-22T04:44:51.019Z,9.17
2023-04-22T04:46:31.543Z,9.23
2023-04-22T04:48:11.931Z,9.23
2023-04-22T04:49:52.191Z,9.26
2023-04-22T04:51:32.598Z,9.24
2023-04-22T04:53:12.896Z,9.24
2023-04-22T04:54:53.347Z,9.3
2023-04-22T04:56:33.718Z,9.31
2023-04-22T04:58:14.084Z,9.42
2023-04-22T04:59:54.507Z,9.57
2023-04-22T05:01:34.908Z,9.71
2023-04-22T05:03:15.451Z,9.79
2023-04-22T05:04:55.908Z,9.9
2023-04-22T05:06:36.176Z,9.98
2023-04-22T05:08:16.587Z,10.07
2023-04-22T05:09:56.968Z,10.14
2023-04-22T05:11:37.370Z,10.26
2023-04-22T05:13:17.748Z,10.33
2023-04-22T05:14:58.219Z,10.39
2023-04-22T05:16:38.728Z,10.46
2023-04-22T05:18:19.047Z,10.57
2023-04-22T05:19:59.499Z,10.64
2023-04-22T05:21:39.820Z,10.72
2023-04-22T05:23:20.227Z,10.78
2023-04-22T05:25:00.629Z,10.85
2023-04-22T05:26:41.059Z,10.92
2023-04-22T05:28:21.491Z,11.01
2023-04-22T05:30:01.838Z,11.09
2023-04-22T05:31:42.310Z,11.16
2023-04-22T05:33:22.711Z,11.22
2023-04-22T05:35:03.126Z,11.3
2023-04-22T05:36:43.451Z,11.39
2023-04-22T05:38:23.793Z,11.47
2023-04-22T05:40:04.211Z,11.54
2023-04-22T05:41:46.923Z,11.6
2023-04-22T05:43:25.032Z,11.63
2023-04-22T05:45:05.448Z,11.71
2023-04-22T05:46:45.855Z,11.76
2023-04-22T05:48:26.272Z,11.78
2023-04-22T05:50:06.757Z,11.85
2023-04-22T05:51:47.186Z,11.94
2023-04-22T05:53:27.591Z,12.04
2023-04-22T05:55:08.037Z,12.14
2023-04-22T05:56:48.389Z,12.25
2023-04-22T05:58:28.775Z,12.35
2023-04-22T06:00:09.130Z,12.46
2023-04-22T06:01:49.512Z,12.66
2023-04-22T06:03:30.223Z,12.88
2023-04-22T06:05:10.560Z,13.11
2023-04-22T06:06:50.729Z,13.29
2023-04-22T06:08:31.211Z,13.49
2023-04-22T06:10:11.604Z,13.7
2023-04-22T06:11:52.062Z,13.87
2023-04-22T06:13:32.515Z,14
2023-04-22T06:15:12.828Z,14.14
2023-04-22T06:16:53.212Z,14.25
2023-04-22T06:18:34.686Z,14.34
2023-04-22T06:20:13.952Z,14.37
2023-04-22T06:21:54.379Z,14.44
2023-04-22T06:23:34.783Z,14.47
2023-04-22T06:25:15.256Z,14.52
2023-04-22T06:26:55.581Z,14.53
2023-04-22T06:28:36.028Z,14.57
2023-04-22T06:30:16.478Z,14.58
2023-04-22T06:31:56.884Z,14.61
2023-04-22T06:33:37.272Z,14.64
2023-04-22T06:35:17.719Z,14.68
2023-04-22T06:36:57.995Z,14.69
2023-04-22T06:38:38.359Z,14.76
2023-04-22T06:40:18.743Z,14.75
2023-04-22T06:41:59.143Z,14.79
2023-04-22T06:43:39.500Z,14.8
2023-04-22T06:45:19.904Z,14.85
2023-04-22T06:47:00.307Z,14.86
2023-04-22T06:48:40.680Z,14.93
2023-04-22T06:50:21.078Z,14.99
2023-04-22T06:52:01.438Z,15.06
2023-04-22T06:53:41.893Z,15.13
2023-04-22T06:55:22.253Z,15.17
2023-04-22T06:57:02.604Z,15.22
2023-04-22T06:58:42.997Z,15.29
2023-04-22T07:00:23.374Z,15.4
2023-04-22T07:02:03.881Z,15.47
2023-04-22T07:03:44.262Z,15.54
2023-04-22T07:05:24.505Z,15.65
2023-04-22T07:07:04.908Z,15.71
2023-04-22T07:08:45.334Z,15.75
2023-04-22T07:10:25.741Z,15.85
2023-04-22T07:12:06.032Z,15.89
2023-04-22T07:13:46.528Z,15.96
2023-04-22T07:15:26.888Z,16.05
2023-04-22T07:17:07.309Z,16.11
2023-04-22T07:18:47.709Z,16.2
2023-04-22T07:20:28.133Z,16.15
2023-04-22T07:22:08.483Z,16.15
2023-04-22T07:23:48.889Z,16.2
2023-04-22T07:25:29.363Z,16.19
2023-04-22T07:27:09.710Z,16.23
2023-04-22T07:28:50.100Z,16.26
2023-04-22T07:30:30.545Z,16.39
2023-04-22T07:32:11.003Z,16.49
2023-04-22T07:33:51.368Z,16.59
2023-04-22T07:35:31.792Z,16.67
2023-04-22T07:37:12.246Z,16.77
2023-04-22T07:38:52.623Z,16.92
2023-04-22T07:40:33.085Z,17.02
2023-04-22T07:42:13.441Z,17.32
2023-04-22T07:43:53.890Z,17.7
2023-04-22T07:45:34.387Z,17.88
2023-04-22T07:47:14.805Z,18.15
2023-04-22T07:48:55.199Z,18.25
2023-04-22T07:50:36.869Z,18.42
2023-04-22T07:52:16.010Z,18.58
2023-04-22T07:53:56.404Z,18.87
2023-04-22T07:55:36.829Z,19.21
2023-04-22T07:57:17.283Z,19.45
2023-04-22T07:58:57.744Z,19.71
2023-04-22T08:00:38.239Z,19.93
2023-04-22T08:02:18.717Z,20.06
2023-04-22T08:03:59.348Z,20.29
2023-04-22T08:05:39.436Z,20.31
2023-04-22T08:09:00.234Z,20.51
2023-04-22T08:10:40.708Z,20.64
2023-04-22T08:12:21.135Z,20.89
2023-04-22T08:14:01.475Z,21.05
2023-04-22T08:15:41.862Z,20.85
2023-04-22T08:17:22.361Z,20.96
2023-04-22T08:19:02.607Z,20.95
2023-04-22T08:20:42.987Z,21.07
2023-04-22T08:22:23.377Z,21.1
2023-04-22T08:24:03.773Z,21.33
2023-04-22T08:25:44.161Z,21.44
2023-04-22T08:27:24.573Z,21.56
2023-04-22T08:29:04.952Z,21.65
2023-04-22T08:30:45.394Z,21.76
2023-04-22T08:32:25.818Z,21.9
2023-04-22T08:34:06.202Z,21.9
2023-04-22T08:35:46.630Z,21.85
2023-04-22T08:37:26.985Z,21.95
2023-04-22T08:39:07.432Z,21.94
2023-04-22T08:40:47.928Z,22
2023-04-22T08:42:28.210Z,22.28
2023-04-22T08:44:08.648Z,22.42
2023-04-22T08:45:49.049Z,22.62
2023-04-22T08:47:29.526Z,22.48
2023-04-22T08:49:09.897Z,22.48
2023-04-22T08:50:50.399Z,22.49
2023-04-22T08:52:30.737Z,22.55
2023-04-22T08:54:11.145Z,22.77
2023-04-22T08:55:51.528Z,23.08
2023-04-22T08:57:31.919Z,23.22
2023-04-22T08:59:12.269Z,23.34
2023-04-22T09:00:52.660Z,23.52
2023-04-22T09:02:33.100Z,23.52
2023-04-22T09:04:13.584Z,23.55
2023-04-22T09:05:53.985Z,23.48
2023-04-22T09:07:34.377Z,23.83
2023-04-22T09:09:14.888Z,23.89
2023-04-22T09:10:55.251Z,23.8
2023-04-22T09:12:35.556Z,23.65
2023-04-22T09:14:15.980Z,23.76
2023-04-22T09:15:59.314Z,23.76
2023-04-22T09:17:36.876Z,23.58
2023-04-22T09:19:17.316Z,23.46
2023-04-22T09:20:57.699Z,23.76
2023-04-22T09:22:38.094Z,23.97
2023-04-22T09:24:18.497Z,23.95
2023-04-22T09:25:58.944Z,23.68
2023-04-22T09:27:39.397Z,23.58
2023-04-22T09:29:19.781Z,23.46
2023-04-22T09:31:00.223Z,23.22
2023-04-22T09:32:40.679Z,23.38
2023-04-22T09:34:21.072Z,23.27
2023-04-22T09:36:01.512Z,23.21
2023-04-22T09:37:49.278Z,23.32
2023-04-22T09:39:22.417Z,23.35
2023-04-22T09:41:02.761Z,23.45
2023-04-22T09:42:43.213Z,23.48
2023-04-22T09:44:23.644Z,23.65
2023-04-22T09:46:04.113Z,23.72
2023-04-22T09:47:44.515Z,23.75
2023-04-22T09:49:24.870Z,24
2023-04-22T09:51:05.248Z,24.07
2023-04-22T09:52:45.591Z,24.07
2023-04-22T09:54:26.037Z,24.28
2023-04-22T09:56:06.453Z,24.3
2023-04-22T09:57:46.854Z,24.27
2023-04-22T09:59:27.257Z,24.4
2023-04-22T10:01:07.664Z,24.4
2023-04-22T10:02:47.985Z,24.55
2023-04-22T10:04:28.584Z,24.77
2023-04-22T10:06:08.692Z,24.79
2023-04-22T10:07:49.190Z,24.72
2023-04-22T10:09:29.614Z,24.72
2023-04-22T10:11:10.064Z,24.85
2023-04-22T10:12:50.430Z,24.85
2023-04-22T10:14:30.860Z,24.68
2023-04-22T10:16:11.282Z,24.69
2023-04-22T10:17:51.760Z,24.81
2023-04-22T10:19:32.079Z,24.72
2023-04-22T10:21:12.465Z,24.81
2023-04-22T10:22:52.961Z,25.06
2023-04-22T10:24:33.325Z,25.22
2023-04-22T10:26:13.672Z,25.3
2023-04-22T10:27:54.079Z,25.46
2023-04-22T10:29:34.434Z,25.54
2023-04-22T10:31:14.919Z,25.54
2023-04-22T10:32:55.343Z,25.57
2023-04-22T10:34:35.624Z,25.53
2023-04-22T10:36:16.023Z,25.29
2023-04-22T10:37:56.432Z,25.51
2023-04-22T10:39:36.848Z,25.43
2023-04-22T10:41:17.352Z,25.43
2023-04-22T10:42:57.681Z,25.64
2023-04-22T10:44:38.089Z,25.44
2023-04-22T10:46:18.636Z,25.4
2023-04-22T10:47:59.001Z,25.43
2023-04-22T10:49:39.688Z,25.7
2023-04-22T10:51:19.774Z,25.65
2023-04-22T10:53:00.162Z,25.48
2023-04-22T10:54:40.554Z,25.67
2023-04-22T10:56:20.923Z,25.51
2023-04-22T10:58:01.260Z,25.57
2023-04-22T10:59:41.789Z,25.65
2023-04-22T11:01:22.090Z,25.95
2023-04-22T11:03:02.583Z,26.01
2023-04-22T11:04:42.824Z,26.09
2023-04-22T11:06:23.247Z,25.94
2023-04-22T11:08:03.652Z,25.81
2023-04-22T11:09:44.065Z,25.8
2023-04-22T11:11:24.523Z,26.01
2023-04-22T11:13:04.897Z,25.94
2023-04-22T11:14:45.289Z,25.81
2023-04-22T11:16:25.824Z,25.85
2023-04-22T11:18:06.144Z,25.67
2023-04-22T11:19:46.501Z,25.8
2023-04-22T11:21:26.930Z,25.68
2023-04-22T11:23:07.417Z,25.78
2023-04-22T11:24:47.786Z,25.67
2023-04-22T11:26:28.186Z,25.61
2023-04-22T11:28:08.533Z,25.71
2023-04-22T11:29:48.949Z,25.53
2023-04-22T11:31:29.344Z,25.56
2023-04-22T11:33:09.783Z,25.68
2023-04-22T11:34:50.192Z,25.71
2023-04-22T11:36:30.613Z,25.6
2023-04-22T11:38:11.013Z,25.54
2023-04-22T11:41:31.767Z,25.33
2023-04-22T11:43:12.094Z,25.38
2023-04-22T11:44:52.474Z,25.41
2023-04-22T11:46:33.063Z,25.33
2023-04-22T11:48:13.285Z,25.41
2023-04-22T11:49:53.666Z,25.61
2023-04-22T11:51:34.061Z,25.71
2023-04-22T11:53:14.363Z,25.63
2023-04-22T11:54:54.850Z,25.53
2023-04-22T11:56:35.269Z,25.73
2023-04-22T11:58:15.687Z,25.94
2023-04-22T11:59:56.184Z,25.98
2023-04-22T12:01:36.583Z,26.02
2023-04-22T12:03:17.155Z,26.28
2023-04-22T12:04:57.484Z,26.47
2023-04-22T12:06:37.832Z,26.5
2023-04-22T12:08:18.280Z,26.44
2023-04-22T12:09:58.657Z,26.54
2023-04-22T12:11:39.030Z,26.71
2023-04-22T12:13:19.390Z,26.69
2023-04-22T12:14:59.918Z,26.62
2023-04-22T12:16:40.213Z,26.6
2023-04-22T12:18:20.690Z,26.62
2023-04-22T12:20:01.102Z,26.74
2023-04-22T12:21:41.563Z,26.94
2023-04-22T12:23:22.026Z,27.01
2023-04-22T12:25:02.486Z,27.02
2023-04-22T12:26:42.830Z,26.86
2023-04-22T12:28:23.315Z,26.63
2023-04-22T12:30:03.734Z,26.5
2023-04-22T12:31:44.242Z,26.32
2023-04-22T12:33:24.710Z,25.99
2023-04-22T12:35:05.122Z,25.77
2023-04-22T12:36:45.563Z,25.68
2023-04-22T12:38:25.914Z,25.68
2023-04-22T12:40:06.298Z,25.84
2023-04-22T12:41:46.747Z,26.02
2023-04-22T12:43:27.144Z,26.25
2023-04-22T12:45:07.508Z,26.38
2023-04-22T12:46:47.952Z,26.32
2023-04-22T12:48:28.309Z,26.43
2023-04-22T12:50:08.684Z,26.4
2023-04-22T12:51:49.019Z,26.43
2023-04-22T12:53:29.349Z,26.47
2023-04-22T12:55:09.797Z,26.52
2023-04-22T12:56:50.241Z,26.44
2023-04-22T12:58:30.676Z,26.56
2023-04-22T13:00:11.168Z,26.66
2023-04-22T13:01:51.493Z,26.79
2023-04-22T13:03:32.146Z,26.84
2023-04-22T13:05:12.283Z,26.81
2023-04-22T13:06:52.736Z,26.71
2023-04-22T13:08:33.237Z,26.76
2023-04-22T13:10:13.582Z,26.77
2023-04-22T13:11:53.959Z,26.86
2023-04-22T13:13:34.327Z,26.9
2023-04-22T13:15:14.754Z,27.01
2023-04-22T13:16:55.210Z,27.44
2023-04-22T13:18:35.659Z,27.58
2023-04-22T13:20:16.139Z,27.85
2023-04-22T13:21:56.527Z,27.82
2023-04-22T13:23:37.005Z,27.96
2023-04-22T13:25:17.308Z,27.99
2023-04-22T13:26:57.705Z,27.97
2023-04-22T13:28:38.135Z,27.82
2023-04-22T13:30:18.532Z,27.49
2023-04-22T13:31:58.933Z,27.08
2023-04-22T13:33:39.312Z,26.9
2023-04-22T13:35:19.716Z,26.89
2023-04-22T13:37:00.164Z,26.9
2023-04-22T13:38:40.503Z,26.79
2023-04-22T13:40:20.934Z,26.73
2023-04-22T13:42:01.408Z,26.56
2023-04-22T13:43:41.798Z,26.59
2023-04-22T13:45:22.209Z,26.79
2023-04-22T13:47:02.968Z,26.62
2023-04-22T13:48:43.071Z,26.57
2023-04-22T13:50:23.595Z,26.49
2023-04-22T13:52:03.961Z,26.38
2023-04-22T13:53:44.323Z,26.31
2023-04-22T13:55:24.733Z,26.59
2023-04-22T13:57:05.116Z,26.79
2023-04-22T13:58:45.467Z,27.01
2023-04-22T14:00:25.901Z,27
2023-04-22T14:02:06.274Z,27.22
2023-04-22T14:03:46.907Z,27.44
2023-04-22T14:05:27.169Z,27.59
2023-04-22T14:07:07.584Z,27.73
2023-04-22T14:08:48.092Z,27.38
2023-04-22T14:10:28.837Z,27.55
2023-04-22T14:12:08.866Z,27.72
2023-04-22T14:13:49.350Z,27.59
2023-04-22T14:15:29.730Z,27.73
2023-04-22T14:17:10.169Z,28.11
2023-04-22T14:18:50.509Z,28.2
2023-04-22T14:20:30.915Z,28.11
2023-04-22T14:22:11.361Z,28.11
2023-04-22T14:23:51.752Z,27.46
2023-04-22T14:25:32.178Z,27.42
2023-04-22T14:27:12.771Z,27.01
2023-04-22T14:28:53.028Z,26.95
2023-04-22T14:30:33.430Z,26.46
2023-04-22T14:32:13.815Z,26.29
2023-04-22T14:33:54.284Z,26.38
2023-04-22T14:35:34.710Z,26.63
2023-04-22T14:37:15.106Z,26.67
2023-04-22T14:38:55.540Z,26.79
2023-04-22T14:40:35.907Z,26.74
2023-04-22T14:42:16.323Z,26.59
2023-04-22T14:43:56.704Z,26.43
2023-04-22T14:45:37.090Z,26.44
2023-04-22T14:47:17.516Z,26.22
2023-04-22T14:48:57.935Z,26.04
2023-04-22T14:50:38.405Z,26.08
2023-04-22T14:52:18.769Z,25.95
2023-04-22T14:53:59.174Z,26.11
2023-04-22T14:55:39.524Z,26.12
2023-04-22T14:57:19.968Z,26.16
2023-04-22T14:59:00.413Z,26.29
2023-04-22T15:00:40.759Z,26.28
2023-04-22T15:02:21.206Z,26.4
2023-04-22T15:04:01.644Z,26.53
2023-04-22T15:05:41.960Z,26.35
2023-04-22T15:07:22.376Z,26.4
2023-04-22T15:09:02.911Z,26.5
2023-04-22T15:10:43.213Z,26.36
2023-04-22T15:12:23.729Z,26.19
2023-04-22T15:14:04.162Z,26.08
2023-04-22T15:15:44.572Z,25.95
2023-04-22T15:17:25.006Z,25.88
2023-04-22T15:19:05.284Z,25.77
2023-04-22T15:20:45.695Z,25.67
2023-04-22T15:22:26.090Z,25.61
2023-04-22T15:24:06.452Z,25.54
2023-04-22T15:25:46.866Z,25.5
2023-04-22T15:27:27.352Z,25.53
2023-04-22T15:29:07.876Z,25.65
2023-04-22T15:30:48.089Z,25.78
2023-04-22T15:32:28.491Z,25.77
2023-04-22T15:34:08.887Z,25.63
2023-04-22T15:35:49.258Z,25.89
2023-04-22T15:37:29.672Z,25.8
2023-04-22T15:39:10.376Z,25.71
2023-04-22T15:40:50.816Z,25.46
2023-04-22T15:42:31.192Z,25.32
2023-04-22T15:44:12.949Z,25.09
2023-04-22T15:45:51.943Z,24.78
2023-04-22T15:47:32.427Z,24.54
2023-04-22T15:49:12.823Z,24.38
2023-04-22T15:50:53.164Z,24.14
2023-04-22T15:52:33.601Z,23.96
2023-04-22T15:54:14.111Z,23.83
2023-04-22T15:55:54.479Z,23.69
2023-04-22T15:57:35.548Z,23.54
2023-04-22T15:59:15.392Z,23.42
2023-04-22T16:00:59.677Z,23.25
2023-04-22T16:02:36.485Z,23.18
2023-04-22T16:04:16.879Z,23.1
2023-04-22T16:05:57.049Z,22.98
2023-04-22T16:07:37.531Z,22.89
2023-04-22T16:09:17.955Z,22.8
2023-04-22T16:10:58.325Z,22.71
2023-04-22T16:12:38.739Z,22.62
2023-04-22T16:14:19.196Z,22.52
2023-04-22T16:15:59.566Z,22.45
2023-04-22T16:17:40.028Z,22.39
2023-04-22T16:19:20.395Z,22.31
2023-04-22T16:21:00.795Z,22.22
2023-04-22T16:22:41.316Z,22.11
2023-04-22T16:24:21.668Z,22.07
2023-04-22T16:26:02.125Z,22.01
2023-04-22T16:27:42.501Z,21.95
2023-04-22T16:29:22.903Z,21.87
2023-04-22T16:31:03.360Z,21.85
2023-04-22T16:32:43.752Z,21.77
2023-04-22T16:34:24.078Z,21.68
2023-04-22T16:36:04.560Z,21.61
2023-04-22T16:37:44.906Z,21.54
2023-04-22T16:39:25.264Z,21.47
2023-04-22T16:41:05.694Z,21.42
2023-04-22T16:42:46.094Z,21.37
2023-04-22T16:44:26.490Z,21.3
2023-04-22T16:46:06.960Z,21.23
2023-04-22T16:47:47.321Z,21.18
2023-04-22T16:49:27.637Z,21.12
2023-04-22T16:51:08.003Z,21.09
2023-04-22T16:52:48.464Z,21.06
2023-04-22T16:54:28.842Z,20.96
2023-04-22T16:56:09.300Z,20.91
2023-04-22T16:57:49.781Z,20.82
2023-04-22T16:59:30.294Z,20.81
2023-04-22T17:01:10.770Z,20.78
2023-04-22T17:02:51.361Z,20.75
2023-04-22T17:04:31.735Z,20.71
2023-04-22T17:06:12.023Z,20.68
2023-04-22T17:07:52.436Z,20.65
2023-04-22T17:09:32.893Z,20.63
2023-04-22T17:11:13.269Z,20.55
2023-04-22T17:12:53.669Z,20.5
2023-04-22T17:14:34.115Z,20.37
2023-04-22T17:16:14.460Z,20.29
2023-04-22T17:17:54.887Z,20.19
2023-04-22T17:19:35.218Z,20.08
2023-04-22T17:21:15.642Z,20.03
2023-04-22T17:22:56.234Z,19.97
2023-04-22T17:24:36.622Z,19.95
2023-04-22T17:26:17.107Z,19.85
2023-04-22T17:27:57.798Z,19.73
2023-04-22T17:29:38.462Z,19.61
2023-04-22T17:31:18.753Z,19.48
2023-04-22T17:32:59.062Z,19.37
2023-04-22T17:34:39.666Z,19.27
2023-04-22T17:36:20.133Z,19.13
2023-04-22T17:38:00.277Z,19.02
2023-04-22T17:39:46.723Z,18.96
2023-04-22T17:41:27.130Z,18.8
2023-04-22T17:43:07.458Z,18.69
2023-04-22T17:44:47.777Z,18.6
2023-04-22T17:46:28.123Z,18.58
2023-04-22T17:48:08.418Z,18.51
2023-04-22T17:49:48.769Z,18.44
2023-04-22T17:51:29.213Z,18.34
2023-04-22T17:53:09.498Z,18.24
2023-04-22T17:54:49.800Z,18.19
2023-04-22T17:56:30.069Z,18.15
2023-04-22T17:58:10.587Z,18.03
2023-04-22T17:59:50.799Z,17.94
2023-04-22T18:01:31.133Z,17.91
2023-04-22T18:03:11.571Z,17.86
2023-04-22T18:04:51.883Z,17.8
2023-04-22T18:06:32.287Z,17.74
2023-04-22T18:08:12.630Z,17.72
2023-04-22T18:09:53.008Z,17.67
2023-04-22T18:11:33.265Z,17.63
2023-04-22T18:13:13.566Z,17.59
2023-04-22T18:14:53.955Z,17.59
2023-04-22T18:16:34.362Z,17.52
2023-04-22T18:18:14.750Z,17.49
2023-04-22T18:20:02.629Z,17.43
2023-04-22T18:21:36.094Z,17.4
2023-04-22T18:23:15.805Z,17.33
2023-04-22T18:24:56.331Z,17.3
2023-04-22T18:26:36.654Z,17.25
2023-04-22T18:28:17.120Z,17.15
2023-04-22T18:29:57.508Z,17.08
2023-04-22T18:31:37.825Z,17.05
2023-04-22T18:33:18.132Z,17.04
2023-04-22T18:34:58.462Z,17
2023-04-22T18:36:38.782Z,16.96
2023-04-22T18:38:19.102Z,16.91
2023-04-22T18:39:59.440Z,16.87
2023-04-22T18:41:39.776Z,16.75
2023-04-22T18:43:20.120Z,16.67
2023-04-22T18:45:01.870Z,16.6
2023-04-22T18:46:40.770Z,16.52
2023-04-22T18:48:21.101Z,16.5
2023-04-22T18:50:01.449Z,16.47
2023-04-22T18:51:42.145Z,16.47
2023-04-22T18:53:22.143Z,16.42
2023-04-22T18:55:02.528Z,16.37
2023-04-22T18:56:42.837Z,16.29
2023-04-22T18:58:23.155Z,16.23
2023-04-22T19:00:03.430Z,16.19
2023-04-22T19:01:43.901Z,16.17
2023-04-22T19:03:24.426Z,16.17
2023-04-22T19:05:04.582Z,16.12
2023-04-22T19:06:44.881Z,16.04
2023-04-22T19:08:25.224Z,16.01
2023-04-22T19:10:05.490Z,15.92
2023-04-22T19:11:45.913Z,15.86
2023-04-22T19:13:29.838Z,15.84
2023-04-22T19:15:06.638Z,15.77
2023-04-22T19:16:46.974Z,15.69
2023-04-22T19:18:27.299Z,15.62
2023-04-22T19:20:07.635Z,15.57
2023-04-22T19:21:48.021Z,15.47
2023-04-22T19:23:28.345Z,15.41
2023-04-22T19:25:08.704Z,15.37
2023-04-22T19:26:49.036Z,15.37
2023-04-22T19:28:29.423Z,15.33
2023-04-22T19:30:09.729Z,15.25
2023-04-22T19:31:50.111Z,15.19
2023-04-22T19:33:30.400Z,15.13
2023-04-22T19:35:10.825Z,15.09
2023-04-22T19:36:51.151Z,15.05
2023-04-22T19:38:31.497Z,14.98
2023-04-22T19:40:11.842Z,14.93
2023-04-22T19:41:52.229Z,14.95
2023-04-22T19:43:32.580Z,14.92
2023-04-22T19:45:12.911Z,14.86
2023-04-22T19:46:53.369Z,14.85
2023-04-22T19:48:33.469Z,14.82
2023-04-22T19:50:13.843Z,14.79
2023-04-22T19:51:54.249Z,14.79
2023-04-22T19:53:34.652Z,14.76
2023-04-22T19:55:15.005Z,14.74
2023-04-22T19:56:55.305Z,14.69
2023-04-22T19:58:35.650Z,14.65
2023-04-22T20:00:15.901Z,14.65
2023-04-22T20:01:56.256Z,14.59
2023-04-22T20:03:36.668Z,14.59
2023-04-22T20:05:16.850Z,14.55
2023-04-22T20:06:57.210Z,14.53
2023-04-22T20:08:37.535Z,14.52
2023-04-22T20:10:17.842Z,14.48
2023-04-22T20:11:58.190Z,14.44
2023-04-22T20:13:38.573Z,14.4
2023-04-22T20:15:18.929Z,14.38
2023-04-22T20:16:59.258Z,14.38
2023-04-22T20:18:39.574Z,14.4
2023-04-22T20:20:19.896Z,14.37
2023-04-22T20:22:00.314Z,14.38
2023-04-22T20:23:40.636Z,14.31
2023-04-22T20:25:20.908Z,14.3
2023-04-22T20:27:01.259Z,14.25
2023-04-22T20:28:41.564Z,14.23
2023-04-22T20:30:21.849Z,14.27
2023-04-22T20:32:02.150Z,14.25
2023-04-22T20:33:42.465Z,14.24
2023-04-22T20:35:22.786Z,14.21
2023-04-22T20:37:03.082Z,14.21
2023-04-22T20:38:43.433Z,14.19
2023-04-22T20:40:24.779Z,14.14
2023-04-22T20:42:04.073Z,14.14
2023-04-22T20:43:44.391Z,14.13
2023-04-22T20:45:24.671Z,14.14
2023-04-22T20:47:05.136Z,14.13
2023-04-22T20:48:45.438Z,14.16
2023-04-22T20:50:25.787Z,14.13
2023-04-22T20:52:06.201Z,14.11
2023-04-22T20:53:46.550Z,14.11
2023-04-22T20:55:26.938Z,14.16
2023-04-22T20:57:07.345Z,14.13
2023-04-22T20:58:47.618Z,14.19
2023-04-22T21:00:27.830Z,14.19
2023-04-22T21:02:08.418Z,14.21
2023-04-22T21:03:48.727Z,14.19
2023-04-22T21:05:28.948Z,14.11
2023-04-22T21:07:09.294Z,14.13
2023-04-22T21:08:49.674Z,14.11
2023-04-22T21:10:30.048Z,14.06
2023-04-22T21:12:10.467Z,14.07
2023-04-22T21:13:50.782Z,14.07
2023-04-22T21:15:31.140Z,14.04
2023-04-22T21:17:11.454Z,13.97
2023-04-22T21:18:51.742Z,13.93
2023-04-22T21:20:32.131Z,13.86
2023-04-22T21:22:12.338Z,13.77
2023-04-22T21:23:52.631Z,13.69
2023-04-22T21:25:33.028Z,13.68
2023-04-22T21:27:13.282Z,13.63
2023-04-22T21:28:53.651Z,13.55
2023-04-22T21:30:34.056Z,13.52
2023-04-22T21:32:14.489Z,13.49
2023-04-22T21:33:54.753Z,13.48
2023-04-22T21:35:35.158Z,13.44
2023-04-22T21:37:15.489Z,13.45
2023-04-22T21:38:55.878Z,13.45
2023-04-22T21:40:36.259Z,13.46
2023-04-22T21:42:16.655Z,13.44
2023-04-22T21:43:56.976Z,13.38
2023-04-22T21:45:37.299Z,13.39
2023-04-22T21:47:17.674Z,13.41
2023-04-22T21:48:57.984Z,13.41
2023-04-22T21:50:38.321Z,13.41